Dumas, AR (71639)

10:06 PM CDT on May 25, 2017 (GMT -0500)
McGehee-Wolfe Dr | | Change Station
Active Advisory: Flood Warning

Elev 171 ft 33.64 °N, 91.40 °W | Updated 48 seconds ago

Clear
Clear
71.0 °F
Feels Like 72 °F
N
0.0
Wind Variable Wind from SE

Today
High -- | Low -- °F
--% Chance of Precip.
Yesterday
High -- | Low -- °F
Precip. -- in
Pressure 29.78 in
Visibility 10.0 miles
Clouds Clear
Heat Index 72 °F
Dew Point 63 °F
Humidity 78%
Rainfall 0.00 in
Snow Depth Not available.
5:58 AM 8:07 PM
New Moon, 0% visible
METAR KLLQ 260253Z AUTO 14004KT 10SM CLR 22/16 A2979 RMK AO2 SLP083 T02170161 51006
Pressure 29.78 in
Visibility 10.0 miles
Clouds Clear
Heat Index 72 °F
Dew Point 63 °F
Humidity 78%
Rainfall 0.00 in
Snow Depth Not available.
5:58 AM 8:07 PM
New Moon, 0% visible
METAR KLLQ 260253Z AUTO 14004KT 10SM CLR 22/16 A2979 RMK AO2 SLP083 T02170161 51006

Get Your Daily Forecast Email!

Thanks for signing up!

Be on the lookout for a verification email in your inbox.

You'll start receiving severe weather alerts in your inbox..

×

10-Day Weather Forecast

Almanac

Astronomy

May. 25, 2017 Rise Set
Actual Time
Civil Twilight
Nautical Twilight
Astronomical Twilight
Moon
Length of Visible Light
Length of Day
Tomorrow will be .
, % of the Moon is Illuminated

Today's Extremes

State Highs State Lows

Community

WunderPhotos

Category 6

Welcome to Category 6. This is the collective home for Weather Underground's featured writeups by Dr. Jeff Masters (right), Bob Henson (left), Chris Burt, and other regular contributors.

Nearby

Air Quality

  Air Quality AQ Index Pollutant
Not available.

Snow Depth

Station Depth Elevation

Earthquake Activity

City Distance Mag. Time & Date
Minimum magnitude displayed is 2.5.

Coastal Water Temperatures

Place Temperature

Stations

Nearby Weather Stations

Station Location Temp. Windchill Dew Point Humidity Wind Precip. Elev Updated Type
                   

Watches & Warnings

Flood Warning
Issued: 8:40 PM CDT May. 25, 2017 – National Weather Service


The Flood Warning continues for
the Mississippi River near Arkansas City
* until Wednesday June 07.
* At 8:00 PM Thursday the stage was 42.0 feet.
* Moderate flooding is occurring and moderate flooding is forecast.
* Flood stage is 37.0 feet.
* Forecast... the river will continue falling and will fall below
flood stage Tuesday afternoon.
* Impact... at 42.0 feet... water approaches the first structure at the
Donaldson Point hunting club in Bolivar County.




              Flood observed forecast 6 am crest
location stg stg day time Fri Sat sun crest time date

Lower Mississippi River
Arkansas City 37 42.0 Thu 08 PM 41.9 41.6 41.0 M M




Lat... Lon 3340 9128 3357 9128 3413 9108 3412 9066
      3358 9106 3340 9105